sensor_id;sensor_type;location;lat;lon;timestamp;temperature;humidity
16801;DHT22;8518;53.236;10.384;2022-09-09T00:00:20;14.10;99.90
16801;DHT22;8518;53.236;10.384;2022-09-09T00:03:04;14.00;99.90
16801;DHT22;8518;53.236;10.384;2022-09-09T00:08:19;14.00;99.90
16801;DHT22;8518;53.236;10.384;2022-09-09T00:10:52;14.00;99.90
16801;DHT22;8518;53.236;10.384;2022-09-09T00:13:40;14.00;99.90
16801;DHT22;8518;53.236;10.384;2022-09-09T00:16:15;14.00;99.90
16801;DHT22;8518;53.236;10.384;2022-09-09T00:21:14;14.00;99.90
16801;DHT22;8518;53.236;10.384;2022-09-09T00:23:54;14.10;99.90
16801;DHT22;8518;53.236;10.384;2022-09-09T00:26:27;14.00;99.90
16801;DHT22;8518;53.236;10.384;2022-09-09T00:31:37;14.00;99.90
16801;DHT22;8518;53.236;10.384;2022-09-09T00:34:24;14.00;99.90
16801;DHT22;8518;53.236;10.384;2022-09-09T00:36:52;13.90;99.90
16801;DHT22;8518;53.236;10.384;2022-09-09T00:39:39;13.90;99.90
16801;DHT22;8518;53.236;10.384;2022-09-09T00:42:36;13.80;99.90
16801;DHT22;8518;53.236;10.384;2022-09-09T00:47:53;13.80;99.90
16801;DHT22;8518;53.236;10.384;2022-09-09T00:58:13;13.70;99.90
16801;DHT22;8518;53.236;10.384;2022-09-09T01:00:45;13.70;99.90
16801;DHT22;8518;53.236;10.384;2022-09-09T01:08:58;13.60;99.90
16801;DHT22;8518;53.236;10.384;2022-09-09T01:11:40;13.50;99.90
16801;DHT22;8518;53.236;10.384;2022-09-09T01:17:17;13.60;99.90
16801;DHT22;8518;53.236;10.384;2022-09-09T01:27:43;13.50;99.90
16801;DHT22;8518;53.236;10.384;2022-09-09T01:30:11;13.50;99.90
16801;DHT22;8518;53.236;10.384;2022-09-09T01:32:51;13.50;99.90
16801;DHT22;8518;53.236;10.384;2022-09-09T01:37:52;13.40;99.90
16801;DHT22;8518;53.236;10.384;2022-09-09T01:40:19;13.40;99.90
16801;DHT22;8518;53.236;10.384;2022-09-09T01:42:45;13.30;99.90
16801;DHT22;8518;53.236;10.384;2022-09-09T01:45:10;13.30;99.90
16801;DHT22;8518;53.236;10.384;2022-09-09T01:47:36;13.30;99.90
16801;DHT22;8518;53.236;10.384;2022-09-09T01:50:02;13.30;99.90
16801;DHT22;8518;53.236;10.384;2022-09-09T01:52:29;13.30;99.90
16801;DHT22;8518;53.236;10.384;2022-09-09T01:54:55;13.30;99.90
16801;DHT22;8518;53.236;10.384;2022-09-09T01:57:26;13.30;99.90
16801;DHT22;8518;53.236;10.384;2022-09-09T02:00:10;13.20;99.90
16801;DHT22;8518;53.236;10.384;2022-09-09T02:05:41;13.20;99.90
16801;DHT22;8518;53.236;10.384;2022-09-09T02:08:22;13.20;99.90
16801;DHT22;8518;53.236;10.384;2022-09-09T02:11:13;13.20;99.90
16801;DHT22;8518;53.236;10.384;2022-09-09T02:13:40;13.20;99.90
16801;DHT22;8518;53.236;10.384;2022-09-09T02:21:22;13.20;99.90
16801;DHT22;8518;53.236;10.384;2022-09-09T02:23:50;13.20;99.90
16801;DHT22;8518;53.236;10.384;2022-09-09T02:26:17;13.20;99.90
16801;DHT22;8518;53.236;10.384;2022-09-09T02:28:48;13.20;99.90
16801;DHT22;8518;53.236;10.384;2022-09-09T02:31:17;13.20;99.90
16801;DHT22;8518;53.236;10.384;2022-09-09T02:33:51;13.20;99.90
16801;DHT22;8518;53.236;10.384;2022-09-09T02:36:19;13.20;99.90
16801;DHT22;8518;53.236;10.384;2022-09-09T02:38:47;13.20;99.90
16801;DHT22;8518;53.236;10.384;2022-09-09T02:41:23;13.20;99.90
16801;DHT22;8518;53.236;10.384;2022-09-09T02:43:49;13.20;99.90
16801;DHT22;8518;53.236;10.384;2022-09-09T02:49:46;13.20;99.90
16801;DHT22;8518;53.236;10.384;2022-09-09T02:52:18;13.20;99.90
16801;DHT22;8518;53.236;10.384;2022-09-09T02:54:47;13.20;99.90
16801;DHT22;8518;53.236;10.384;2022-09-09T02:57:24;13.10;99.90
16801;DHT22;8518;53.236;10.384;2022-09-09T02:59:51;13.10;99.90
16801;DHT22;8518;53.236;10.384;2022-09-09T03:02:18;13.10;99.90
16801;DHT22;8518;53.236;10.384;2022-09-09T03:04:44;13.10;99.90
16801;DHT22;8518;53.236;10.384;2022-09-09T03:07:16;13.00;99.90
16801;DHT22;8518;53.236;10.384;2022-09-09T03:09:42;13.00;99.90
16801;DHT22;8518;53.236;10.384;2022-09-09T03:12:08;13.00;99.90
16801;DHT22;8518;53.236;10.384;2022-09-09T03:14:36;13.10;99.90
16801;DHT22;8518;53.236;10.384;2022-09-09T03:17:03;13.00;99.90
16801;DHT22;8518;53.236;10.384;2022-09-09T03:19:29;13.10;99.90
16801;DHT22;8518;53.236;10.384;2022-09-09T03:21:55;13.00;99.90
16801;DHT22;8518;53.236;10.384;2022-09-09T03:24:21;13.00;99.90
16801;DHT22;8518;53.236;10.384;2022-09-09T03:26:48;12.90;99.90
16801;DHT22;8518;53.236;10.384;2022-09-09T03:29:14;13.00;99.90
16801;DHT22;8518;53.236;10.384;2022-09-09T03:31:40;13.00;99.90
16801;DHT22;8518;53.236;10.384;2022-09-09T03:34:06;12.90;99.90
16801;DHT22;8518;53.236;10.384;2022-09-09T03:36:32;12.90;99.90
16801;DHT22;8518;53.236;10.384;2022-09-09T03:38:58;12.90;99.90
16801;DHT22;8518;53.236;10.384;2022-09-09T03:41:25;12.90;99.90
16801;DHT22;8518;53.236;10.384;2022-09-09T03:43:51;12.90;99.90
16801;DHT22;8518;53.236;10.384;2022-09-09T03:46:22;12.90;99.90
16801;DHT22;8518;53.236;10.384;2022-09-09T03:48:48;12.90;99.90
16801;DHT22;8518;53.236;10.384;2022-09-09T03:51:14;12.90;99.90
16801;DHT22;8518;53.236;10.384;2022-09-09T03:53:41;12.90;99.90
16801;DHT22;8518;53.236;10.384;2022-09-09T03:56:07;12.90;99.90
16801;DHT22;8518;53.236;10.384;2022-09-09T03:58:37;12.90;99.90
16801;DHT22;8518;53.236;10.384;2022-09-09T04:01:08;12.90;99.90
16801;DHT22;8518;53.236;10.384;2022-09-09T04:03:34;12.80;99.90
16801;DHT22;8518;53.236;10.384;2022-09-09T04:06:01;12.80;99.90
16801;DHT22;8518;53.236;10.384;2022-09-09T04:08:29;12.80;99.90
16801;DHT22;8518;53.236;10.384;2022-09-09T04:10:58;12.80;99.90
16801;DHT22;8518;53.236;10.384;2022-09-09T04:13:26;12.80;99.90
16801;DHT22;8518;53.236;10.384;2022-09-09T04:15:57;12.80;99.90
16801;DHT22;8518;53.236;10.384;2022-09-09T04:18:23;12.80;99.90
16801;DHT22;8518;53.236;10.384;2022-09-09T04:20:50;12.90;99.90
16801;DHT22;8518;53.236;10.384;2022-09-09T04:23:17;12.90;99.90
16801;DHT22;8518;53.236;10.384;2022-09-09T04:25:47;13.00;99.90
16801;DHT22;8518;53.236;10.384;2022-09-09T04:28:14;13.00;99.90
16801;DHT22;8518;53.236;10.384;2022-09-09T04:30:41;13.00;99.90
16801;DHT22;8518;53.236;10.384;2022-09-09T04:33:07;13.00;99.90
16801;DHT22;8518;53.236;10.384;2022-09-09T04:35:33;13.10;99.90
16801;DHT22;8518;53.236;10.384;2022-09-09T04:37:59;13.10;99.90
16801;DHT22;8518;53.236;10.384;2022-09-09T04:40:25;13.00;99.90
16801;DHT22;8518;53.236;10.384;2022-09-09T04:42:51;13.10;99.90
16801;DHT22;8518;53.236;10.384;2022-09-09T04:45:16;13.20;99.90
16801;DHT22;8518;53.236;10.384;2022-09-09T04:47:43;13.20;99.90
16801;DHT22;8518;53.236;10.384;2022-09-09T04:50:09;13.20;99.90
16801;DHT22;8518;53.236;10.384;2022-09-09T04:52:35;13.20;99.90
16801;DHT22;8518;53.236;10.384;2022-09-09T04:55:01;13.20;99.90
16801;DHT22;8518;53.236;10.384;2022-09-09T04:57:27;13.30;99.90
16801;DHT22;8518;53.236;10.384;2022-09-09T04:59:54;13.30;99.90
16801;DHT22;8518;53.236;10.384;2022-09-09T05:02:19;13.30;99.90
16801;DHT22;8518;53.236;10.384;2022-09-09T05:04:45;13.30;99.90
16801;DHT22;8518;53.236;10.384;2022-09-09T05:07:11;13.30;99.90
16801;DHT22;8518;53.236;10.384;2022-09-09T05:09:36;13.40;99.90
16801;DHT22;8518;53.236;10.384;2022-09-09T05:12:02;13.40;99.90
16801;DHT22;8518;53.236;10.384;2022-09-09T05:14:28;13.40;99.90
16801;DHT22;8518;53.236;10.384;2022-09-09T05:16:55;13.40;99.90
16801;DHT22;8518;53.236;10.384;2022-09-09T05:19:21;13.30;99.90
16801;DHT22;8518;53.236;10.384;2022-09-09T05:21:47;13.30;99.90
16801;DHT22;8518;53.236;10.384;2022-09-09T05:24:13;13.30;99.90
16801;DHT22;8518;53.236;10.384;2022-09-09T05:26:38;13.30;99.90
16801;DHT22;8518;53.236;10.384;2022-09-09T05:29:04;13.30;99.90
16801;DHT22;8518;53.236;10.384;2022-09-09T05:31:30;13.40;99.90
16801;DHT22;8518;53.236;10.384;2022-09-09T05:33:56;13.40;99.90
16801;DHT22;8518;53.236;10.384;2022-09-09T05:36:22;13.50;99.90
16801;DHT22;8518;53.236;10.384;2022-09-09T05:38:49;13.50;99.90
16801;DHT22;8518;53.236;10.384;2022-09-09T05:41:15;13.60;99.90
16801;DHT22;8518;53.236;10.384;2022-09-09T05:43:42;13.70;99.90
16801;DHT22;8518;53.236;10.384;2022-09-09T05:46:14;13.80;99.90
16801;DHT22;8518;53.236;10.384;2022-09-09T05:48:45;13.90;99.90
16801;DHT22;8518;53.236;10.384;2022-09-09T05:51:18;14.00;99.90
16801;DHT22;8518;53.236;10.384;2022-09-09T05:53:45;14.00;99.90
16801;DHT22;8518;53.236;10.384;2022-09-09T05:56:13;14.00;99.90
16801;DHT22;8518;53.236;10.384;2022-09-09T05:58:50;14.00;99.90
16801;DHT22;8518;53.236;10.384;2022-09-09T06:01:19;14.10;99.90
16801;DHT22;8518;53.236;10.384;2022-09-09T06:03:49;14.10;99.90
16801;DHT22;8518;53.236;10.384;2022-09-09T06:06:20;14.10;99.90
16801;DHT22;8518;53.236;10.384;2022-09-09T06:08:47;14.10;99.90
16801;DHT22;8518;53.236;10.384;2022-09-09T06:13:41;14.20;99.90
16801;DHT22;8518;53.236;10.384;2022-09-09T06:16:11;14.20;99.90
16801;DHT22;8518;53.236;10.384;2022-09-09T06:18:38;14.30;99.90
16801;DHT22;8518;53.236;10.384;2022-09-09T06:21:06;14.30;99.90
16801;DHT22;8518;53.236;10.384;2022-09-09T06:23:33;14.30;99.90
16801;DHT22;8518;53.236;10.384;2022-09-09T06:26:12;14.30;99.90
16801;DHT22;8518;53.236;10.384;2022-09-09T06:28:38;14.30;99.90
16801;DHT22;8518;53.236;10.384;2022-09-09T06:31:09;14.40;99.90
16801;DHT22;8518;53.236;10.384;2022-09-09T06:33:37;14.50;99.90
16801;DHT22;8518;53.236;10.384;2022-09-09T06:36:07;14.60;99.90
16801;DHT22;8518;53.236;10.384;2022-09-09T06:38:35;14.60;99.90
16801;DHT22;8518;53.236;10.384;2022-09-09T06:41:01;14.70;99.90
16801;DHT22;8518;53.236;10.384;2022-09-09T06:43:31;14.80;99.90
16801;DHT22;8518;53.236;10.384;2022-09-09T06:46:20;14.80;99.90
16801;DHT22;8518;53.236;10.384;2022-09-09T06:48:47;14.90;99.90
16801;DHT22;8518;53.236;10.384;2022-09-09T06:51:20;15.00;99.90
16801;DHT22;8518;53.236;10.384;2022-09-09T06:53:56;15.10;99.90
16801;DHT22;8518;53.236;10.384;2022-09-09T06:56:31;15.30;99.90
16801;DHT22;8518;53.236;10.384;2022-09-09T06:58:59;15.60;99.90
16801;DHT22;8518;53.236;10.384;2022-09-09T07:01:28;15.80;99.90
16801;DHT22;8518;53.236;10.384;2022-09-09T07:03:57;16.00;99.90
16801;DHT22;8518;53.236;10.384;2022-09-09T07:06:28;16.20;99.90
16801;DHT22;8518;53.236;10.384;2022-09-09T07:09:00;16.50;99.90
16801;DHT22;8518;53.236;10.384;2022-09-09T07:11:28;16.70;99.90
16801;DHT22;8518;53.236;10.384;2022-09-09T07:13:55;16.90;99.90
16801;DHT22;8518;53.236;10.384;2022-09-09T07:16:22;17.00;99.90
16801;DHT22;8518;53.236;10.384;2022-09-09T07:18:53;17.20;99.90
16801;DHT22;8518;53.236;10.384;2022-09-09T07:21:20;17.30;99.90
16801;DHT22;8518;53.236;10.384;2022-09-09T07:23:46;17.40;99.90
16801;DHT22;8518;53.236;10.384;2022-09-09T07:26:15;17.60;99.90
16801;DHT22;8518;53.236;10.384;2022-09-09T07:28:42;17.90;99.90
16801;DHT22;8518;53.236;10.384;2022-09-09T07:31:16;18.30;99.90
16801;DHT22;8518;53.236;10.384;2022-09-09T07:33:43;18.40;99.90
16801;DHT22;8518;53.236;10.384;2022-09-09T07:36:20;18.50;99.90
16801;DHT22;8518;53.236;10.384;2022-09-09T07:38:51;18.60;99.90
16801;DHT22;8518;53.236;10.384;2022-09-09T07:41:23;18.80;99.90
16801;DHT22;8518;53.236;10.384;2022-09-09T07:43:52;19.00;99.90
16801;DHT22;8518;53.236;10.384;2022-09-09T07:46:23;19.10;99.90
16801;DHT22;8518;53.236;10.384;2022-09-09T07:49:01;19.10;99.90
16801;DHT22;8518;53.236;10.384;2022-09-09T07:51:52;19.10;99.90
16801;DHT22;8518;53.236;10.384;2022-09-09T07:54:20;19.10;99.90
16801;DHT22;8518;53.236;10.384;2022-09-09T07:56:51;19.20;99.90
16801;DHT22;8518;53.236;10.384;2022-09-09T07:59:17;19.30;99.90
16801;DHT22;8518;53.236;10.384;2022-09-09T08:01:52;19.50;99.90
16801;DHT22;8518;53.236;10.384;2022-09-09T08:04:23;19.90;99.90
16801;DHT22;8518;53.236;10.384;2022-09-09T08:06:51;20.10;99.90
16801;DHT22;8518;53.236;10.384;2022-09-09T08:09:24;20.30;99.90
16801;DHT22;8518;53.236;10.384;2022-09-09T08:11:55;20.30;99.90
16801;DHT22;8518;53.236;10.384;2022-09-09T08:14:22;20.20;99.90
16801;DHT22;8518;53.236;10.384;2022-09-09T08:16:49;20.10;99.90
16801;DHT22;8518;53.236;10.384;2022-09-09T08:19:16;20.20;99.90
16801;DHT22;8518;53.236;10.384;2022-09-09T08:21:42;20.50;99.90
16801;DHT22;8518;53.236;10.384;2022-09-09T08:24:09;20.60;99.90
16801;DHT22;8518;53.236;10.384;2022-09-09T08:26:47;21.10;99.90
16801;DHT22;8518;53.236;10.384;2022-09-09T08:29:14;22.10;99.90
16801;DHT22;8518;53.236;10.384;2022-09-09T08:31:45;22.30;99.90
16801;DHT22;8518;53.236;10.384;2022-09-09T08:34:12;21.90;99.90
16801;DHT22;8518;53.236;10.384;2022-09-09T08:36:40;21.60;99.90
16801;DHT22;8518;53.236;10.384;2022-09-09T08:39:08;21.60;99.90
16801;DHT22;8518;53.236;10.384;2022-09-09T08:47:18;22.20;99.90
16801;DHT22;8518;53.236;10.384;2022-09-09T08:52:30;22.20;99.90
16801;DHT22;8518;53.236;10.384;2022-09-09T08:57:44;22.80;99.90
16801;DHT22;8518;53.236;10.384;2022-09-09T09:00:11;22.40;99.90
16801;DHT22;8518;53.236;10.384;2022-09-09T09:05:26;21.80;99.90
16801;DHT22;8518;53.236;10.384;2022-09-09T09:08:17;24.00;99.90
16801;DHT22;8518;53.236;10.384;2022-09-09T09:10:48;27.40;99.90
16801;DHT22;8518;53.236;10.384;2022-09-09T09:19:10;31.40;94.30
16801;DHT22;8518;53.236;10.384;2022-09-09T09:21:42;32.40;94.50
16801;DHT22;8518;53.236;10.384;2022-09-09T09:24:23;32.40;91.60
16801;DHT22;8518;53.236;10.384;2022-09-09T09:26:50;30.60;92.80
16801;DHT22;8518;53.236;10.384;2022-09-09T09:29:18;29.10;96.80
16801;DHT22;8518;53.236;10.384;2022-09-09T09:31:55;28.10;99.50
16801;DHT22;8518;53.236;10.384;2022-09-09T09:34:24;26.40;99.90
16801;DHT22;8518;53.236;10.384;2022-09-09T09:36:55;25.30;99.90
16801;DHT22;8518;53.236;10.384;2022-09-09T09:39:27;24.20;99.90
16801;DHT22;8518;53.236;10.384;2022-09-09T09:41:53;23.20;99.90
16801;DHT22;8518;53.236;10.384;2022-09-09T09:44:32;22.90;99.90
16801;DHT22;8518;53.236;10.384;2022-09-09T09:47:08;22.60;99.90
16801;DHT22;8518;53.236;10.384;2022-09-09T09:49:34;22.80;99.90
16801;DHT22;8518;53.236;10.384;2022-09-09T09:52:01;23.20;99.90
16801;DHT22;8518;53.236;10.384;2022-09-09T09:54:30;23.60;99.90
16801;DHT22;8518;53.236;10.384;2022-09-09T09:57:06;24.00;99.90
16801;DHT22;8518;53.236;10.384;2022-09-09T09:59:35;24.60;99.90
16801;DHT22;8518;53.236;10.384;2022-09-09T10:02:47;25.40;99.90
16801;DHT22;8518;53.236;10.384;2022-09-09T10:07:46;26.50;99.90
16801;DHT22;8518;53.236;10.384;2022-09-09T10:10:23;26.30;99.90
16801;DHT22;8518;53.236;10.384;2022-09-09T10:13:04;25.40;99.90
16801;DHT22;8518;53.236;10.384;2022-09-09T10:24:49;25.10;99.90
16801;DHT22;8518;53.236;10.384;2022-09-09T10:29:56;28.50;99.90
16801;DHT22;8518;53.236;10.384;2022-09-09T10:35:35;32.40;92.30
16801;DHT22;8518;53.236;10.384;2022-09-09T10:38:18;33.80;82.50
16801;DHT22;8518;53.236;10.384;2022-09-09T10:41:00;34.60;76.50
16801;DHT22;8518;53.236;10.384;2022-09-09T10:43:48;34.50;70.50
16801;DHT22;8518;53.236;10.384;2022-09-09T10:59:58;39.30;50.10
16801;DHT22;8518;53.236;10.384;2022-09-09T11:02:30;37.20;53.40
16801;DHT22;8518;53.236;10.384;2022-09-09T11:05:20;36.60;55.00
16801;DHT22;8518;53.236;10.384;2022-09-09T11:08:19;36.10;54.70
16801;DHT22;8518;53.236;10.384;2022-09-09T11:13:44;32.70;61.50
16801;DHT22;8518;53.236;10.384;2022-09-09T11:19:21;28.80;84.30
16801;DHT22;8518;53.236;10.384;2022-09-09T11:21:50;27.30;92.30
16801;DHT22;8518;53.236;10.384;2022-09-09T11:27:15;25.40;99.90
16801;DHT22;8518;53.236;10.384;2022-09-09T11:40:44;23.10;99.90
16801;DHT22;8518;53.236;10.384;2022-09-09T11:43:22;22.80;99.90
16801;DHT22;8518;53.236;10.384;2022-09-09T11:45:54;22.40;99.90
16801;DHT22;8518;53.236;10.384;2022-09-09T11:48:38;22.20;99.90
16801;DHT22;8518;53.236;10.384;2022-09-09T11:51:06;22.00;99.90
16801;DHT22;8518;53.236;10.384;2022-09-09T11:53:34;21.80;99.90
16801;DHT22;8518;53.236;10.384;2022-09-09T11:57:02;21.60;99.90
16801;DHT22;8518;53.236;10.384;2022-09-09T11:59:32;21.40;99.90
16801;DHT22;8518;53.236;10.384;2022-09-09T12:02:12;21.20;99.90
16801;DHT22;8518;53.236;10.384;2022-09-09T12:05:10;21.20;99.90
16801;DHT22;8518;53.236;10.384;2022-09-09T12:07:54;21.30;99.90
16801;DHT22;8518;53.236;10.384;2022-09-09T12:10:30;21.50;99.90
16801;DHT22;8518;53.236;10.384;2022-09-09T12:13:18;21.70;99.90
16801;DHT22;8518;53.236;10.384;2022-09-09T12:15:53;22.00;99.90
16801;DHT22;8518;53.236;10.384;2022-09-09T12:18:25;22.40;99.90
16801;DHT22;8518;53.236;10.384;2022-09-09T12:24:10;23.20;99.90
16801;DHT22;8518;53.236;10.384;2022-09-09T12:32:07;23.80;99.90
16801;DHT22;8518;53.236;10.384;2022-09-09T12:34:52;23.80;99.90
16801;DHT22;8518;53.236;10.384;2022-09-09T12:39:57;24.00;99.90
16801;DHT22;8518;53.236;10.384;2022-09-09T12:42:25;23.90;99.90
16801;DHT22;8518;53.236;10.384;2022-09-09T12:45:02;23.70;99.90
16801;DHT22;8518;53.236;10.384;2022-09-09T12:50:22;23.40;99.90
16801;DHT22;8518;53.236;10.384;2022-09-09T12:52:49;23.30;99.90
16801;DHT22;8518;53.236;10.384;2022-09-09T12:55:19;23.50;99.90
16801;DHT22;8518;53.236;10.384;2022-09-09T12:57:48;25.20;99.90
16801;DHT22;8518;53.236;10.384;2022-09-09T13:00:24;28.60;99.90
16801;DHT22;8518;53.236;10.384;2022-09-09T13:03:02;31.80;99.90
16801;DHT22;8518;53.236;10.384;2022-09-09T13:05:36;33.70;94.20
16801;DHT22;8518;53.236;10.384;2022-09-09T13:08:10;34.90;90.70
16801;DHT22;8518;53.236;10.384;2022-09-09T13:10:53;35.50;86.70
16801;DHT22;8518;53.236;10.384;2022-09-09T13:13:31;35.60;83.10
16801;DHT22;8518;53.236;10.384;2022-09-09T13:16:01;35.40;78.80
16801;DHT22;8518;53.236;10.384;2022-09-09T13:18:29;34.10;80.20
16801;DHT22;8518;53.236;10.384;2022-09-09T13:20:56;32.10;87.10
16801;DHT22;8518;53.236;10.384;2022-09-09T13:23:28;30.40;91.70
16801;DHT22;8518;53.236;10.384;2022-09-09T13:26:26;28.70;94.00
16801;DHT22;8518;53.236;10.384;2022-09-09T13:28:54;26.90;97.50
16801;DHT22;8518;53.236;10.384;2022-09-09T13:31:36;25.40;99.90
16801;DHT22;8518;53.236;10.384;2022-09-09T13:34:26;24.40;99.90
16801;DHT22;8518;53.236;10.384;2022-09-09T13:37:02;23.50;99.90
16801;DHT22;8518;53.236;10.384;2022-09-09T13:39:29;23.00;99.90
16801;DHT22;8518;53.236;10.384;2022-09-09T13:41:54;22.60;99.90
16801;DHT22;8518;53.236;10.384;2022-09-09T13:44:25;22.20;99.90
16801;DHT22;8518;53.236;10.384;2022-09-09T13:47:05;21.80;99.90
16801;DHT22;8518;53.236;10.384;2022-09-09T13:49:31;21.50;99.90
16801;DHT22;8518;53.236;10.384;2022-09-09T13:52:10;21.10;99.90
16801;DHT22;8518;53.236;10.384;2022-09-09T13:54:37;20.90;99.90
16801;DHT22;8518;53.236;10.384;2022-09-09T13:57:03;20.70;99.90
16801;DHT22;8518;53.236;10.384;2022-09-09T13:59:30;20.50;99.90
16801;DHT22;8518;53.236;10.384;2022-09-09T14:01:55;20.30;99.90
16801;DHT22;8518;53.236;10.384;2022-09-09T14:04:21;19.80;99.90
16801;DHT22;8518;53.236;10.384;2022-09-09T14:06:47;19.20;99.90
16801;DHT22;8518;53.236;10.384;2022-09-09T14:09:15;18.80;99.90
16801;DHT22;8518;53.236;10.384;2022-09-09T14:11:41;18.60;99.90
16801;DHT22;8518;53.236;10.384;2022-09-09T14:14:08;18.30;99.90
16801;DHT22;8518;53.236;10.384;2022-09-09T14:16:36;18.20;99.90
16801;DHT22;8518;53.236;10.384;2022-09-09T14:19:03;18.30;99.90
16801;DHT22;8518;53.236;10.384;2022-09-09T14:21:29;18.50;99.90
16801;DHT22;8518;53.236;10.384;2022-09-09T14:23:57;18.60;99.90
16801;DHT22;8518;53.236;10.384;2022-09-09T14:26:24;18.70;99.90
16801;DHT22;8518;53.236;10.384;2022-09-09T14:28:51;18.80;99.90
16801;DHT22;8518;53.236;10.384;2022-09-09T14:31:17;19.00;99.90
16801;DHT22;8518;53.236;10.384;2022-09-09T14:33:44;19.10;99.90
16801;DHT22;8518;53.236;10.384;2022-09-09T14:36:13;19.20;99.90
16801;DHT22;8518;53.236;10.384;2022-09-09T14:38:39;19.30;99.90
16801;DHT22;8518;53.236;10.384;2022-09-09T14:41:13;19.40;99.90
16801;DHT22;8518;53.236;10.384;2022-09-09T14:43:40;19.40;99.90
16801;DHT22;8518;53.236;10.384;2022-09-09T14:46:07;19.50;99.90
16801;DHT22;8518;53.236;10.384;2022-09-09T14:48:33;19.40;99.90
16801;DHT22;8518;53.236;10.384;2022-09-09T14:51:18;19.40;99.90
16801;DHT22;8518;53.236;10.384;2022-09-09T14:53:45;19.50;99.90
16801;DHT22;8518;53.236;10.384;2022-09-09T14:56:19;19.50;99.90
16801;DHT22;8518;53.236;10.384;2022-09-09T14:58:49;19.50;99.90
16801;DHT22;8518;53.236;10.384;2022-09-09T15:01:17;19.60;99.90
16801;DHT22;8518;53.236;10.384;2022-09-09T15:03:55;19.60;99.90
16801;DHT22;8518;53.236;10.384;2022-09-09T15:06:22;19.50;99.90
16801;DHT22;8518;53.236;10.384;2022-09-09T15:08:50;19.50;99.90
16801;DHT22;8518;53.236;10.384;2022-09-09T15:11:16;19.50;99.90
16801;DHT22;8518;53.236;10.384;2022-09-09T15:13:43;19.40;99.90
16801;DHT22;8518;53.236;10.384;2022-09-09T15:16:09;19.20;99.90
16801;DHT22;8518;53.236;10.384;2022-09-09T15:18:36;19.10;99.90
16801;DHT22;8518;53.236;10.384;2022-09-09T15:21:03;19.00;99.90
16801;DHT22;8518;53.236;10.384;2022-09-09T15:23:33;19.00;99.90
16801;DHT22;8518;53.236;10.384;2022-09-09T15:25:59;19.00;99.90
16801;DHT22;8518;53.236;10.384;2022-09-09T15:28:24;19.00;99.90
16801;DHT22;8518;53.236;10.384;2022-09-09T15:30:52;19.00;99.90
16801;DHT22;8518;53.236;10.384;2022-09-09T15:33:22;19.10;99.90
16801;DHT22;8518;53.236;10.384;2022-09-09T15:35:48;19.20;99.90
16801;DHT22;8518;53.236;10.384;2022-09-09T15:38:14;19.30;99.90
16801;DHT22;8518;53.236;10.384;2022-09-09T15:40:40;19.30;99.90
16801;DHT22;8518;53.236;10.384;2022-09-09T15:43:06;19.40;99.90
16801;DHT22;8518;53.236;10.384;2022-09-09T15:45:33;19.50;99.90
16801;DHT22;8518;53.236;10.384;2022-09-09T15:48:00;19.60;99.90
16801;DHT22;8518;53.236;10.384;2022-09-09T15:50:26;19.70;99.90
16801;DHT22;8518;53.236;10.384;2022-09-09T15:52:52;19.70;99.90
16801;DHT22;8518;53.236;10.384;2022-09-09T15:55:19;19.80;99.90
16801;DHT22;8518;53.236;10.384;2022-09-09T15:57:52;19.80;99.90
16801;DHT22;8518;53.236;10.384;2022-09-09T16:00:19;19.70;99.90
16801;DHT22;8518;53.236;10.384;2022-09-09T16:02:46;19.70;99.90
16801;DHT22;8518;53.236;10.384;2022-09-09T16:05:12;19.70;99.90
16801;DHT22;8518;53.236;10.384;2022-09-09T16:07:38;19.60;99.90
16801;DHT22;8518;53.236;10.384;2022-09-09T16:10:04;19.60;99.90
16801;DHT22;8518;53.236;10.384;2022-09-09T16:12:31;19.50;99.90
16801;DHT22;8518;53.236;10.384;2022-09-09T16:14:56;19.50;99.90
16801;DHT22;8518;53.236;10.384;2022-09-09T16:17:25;19.40;99.90
16801;DHT22;8518;53.236;10.384;2022-09-09T16:19:50;19.40;99.90
16801;DHT22;8518;53.236;10.384;2022-09-09T16:22:16;19.40;99.90
16801;DHT22;8518;53.236;10.384;2022-09-09T16:24:43;19.40;99.90
16801;DHT22;8518;53.236;10.384;2022-09-09T16:27:13;19.40;99.90
16801;DHT22;8518;53.236;10.384;2022-09-09T16:29:39;19.40;99.90
16801;DHT22;8518;53.236;10.384;2022-09-09T16:32:07;19.40;99.90
16801;DHT22;8518;53.236;10.384;2022-09-09T16:34:33;19.30;99.90
16801;DHT22;8518;53.236;10.384;2022-09-09T16:36:59;19.20;99.90
16801;DHT22;8518;53.236;10.384;2022-09-09T16:39:24;19.20;99.90
16801;DHT22;8518;53.236;10.384;2022-09-09T16:41:50;19.20;99.90
16801;DHT22;8518;53.236;10.384;2022-09-09T16:44:18;19.10;99.90
16801;DHT22;8518;53.236;10.384;2022-09-09T16:46:46;19.00;99.90
16801;DHT22;8518;53.236;10.384;2022-09-09T16:49:14;19.00;99.90
16801;DHT22;8518;53.236;10.384;2022-09-09T16:51:47;18.90;99.90
16801;DHT22;8518;53.236;10.384;2022-09-09T16:54:13;18.70;99.90
16801;DHT22;8518;53.236;10.384;2022-09-09T16:56:43;18.70;99.90
16801;DHT22;8518;53.236;10.384;2022-09-09T16:59:11;18.60;99.90
16801;DHT22;8518;53.236;10.384;2022-09-09T17:01:39;18.50;99.90
16801;DHT22;8518;53.236;10.384;2022-09-09T17:04:11;18.50;99.90
16801;DHT22;8518;53.236;10.384;2022-09-09T17:06:39;18.40;99.90
16801;DHT22;8518;53.236;10.384;2022-09-09T17:09:09;18.40;99.90
16801;DHT22;8518;53.236;10.384;2022-09-09T17:11:35;18.30;99.90
16801;DHT22;8518;53.236;10.384;2022-09-09T17:14:02;18.30;99.90
16801;DHT22;8518;53.236;10.384;2022-09-09T17:16:30;18.20;99.90
16801;DHT22;8518;53.236;10.384;2022-09-09T17:18:57;18.10;99.90
16801;DHT22;8518;53.236;10.384;2022-09-09T17:21:25;18.00;99.90
16801;DHT22;8518;53.236;10.384;2022-09-09T17:23:52;17.80;99.90
16801;DHT22;8518;53.236;10.384;2022-09-09T17:26:20;17.70;99.90
16801;DHT22;8518;53.236;10.384;2022-09-09T17:28:47;17.60;99.90
16801;DHT22;8518;53.236;10.384;2022-09-09T17:31:16;17.50;99.90
16801;DHT22;8518;53.236;10.384;2022-09-09T17:33:47;17.50;99.90
16801;DHT22;8518;53.236;10.384;2022-09-09T17:36:19;17.40;99.90
16801;DHT22;8518;53.236;10.384;2022-09-09T17:38:47;17.40;99.90
16801;DHT22;8518;53.236;10.384;2022-09-09T17:41:20;17.30;99.90
16801;DHT22;8518;53.236;10.384;2022-09-09T17:43:47;17.20;99.90
16801;DHT22;8518;53.236;10.384;2022-09-09T17:46:27;17.20;99.90
16801;DHT22;8518;53.236;10.384;2022-09-09T17:48:58;17.10;99.90
16801;DHT22;8518;53.236;10.384;2022-09-09T17:51:26;17.00;99.90
16801;DHT22;8518;53.236;10.384;2022-09-09T17:54:00;17.00;99.90
16801;DHT22;8518;53.236;10.384;2022-09-09T17:56:28;16.90;99.90
16801;DHT22;8518;53.236;10.384;2022-09-09T17:58:56;16.90;99.90
16801;DHT22;8518;53.236;10.384;2022-09-09T18:01:24;16.90;99.90
16801;DHT22;8518;53.236;10.384;2022-09-09T18:03:53;16.80;99.90
16801;DHT22;8518;53.236;10.384;2022-09-09T18:06:25;16.80;99.90